Terminal Aerodrome Forecast
Issued by NWS Sioux Falls, SD

Home | Current Version | Previous Version | Text Only | Print | Product List | Glossary On
Versions: 1 2 3 4 5 6 7 8 9 10 11 12 13 14 15
000
FTUS43 KFSD 261140
TAFFSD
TAF
KFSD 261140Z 2612/2712 19007KT P6SM SKC
     FM261700 17012KT P6SM FEW250
     FM262300 16010KT P6SM SCT250
     FM270400 16006KT P6SM BKN200
     FM270800 15005KT P6SM BKN090=

USA.gov is the U.S. government's official web portal to all federal, state and local government web resources and services.